sensor_id;sensor_type;location;lat;lon;timestamp;pressure;altitude;pressure_sealevel;temperature;humidity
64521;BME280;50896;46.714;17.322;2024-02-28T00:02:04;100321.13;;;10.60;100.00
64521;BME280;50896;46.714;17.322;2024-02-28T00:04:31;100325.63;;;10.59;100.00
64521;BME280;50896;46.714;17.322;2024-02-28T00:06:57;100320.31;;;10.59;100.00
64521;BME280;50896;46.714;17.322;2024-02-28T00:09:25;100328.78;;;10.71;100.00
64521;BME280;50896;46.714;17.322;2024-02-28T00:11:52;100314.31;;;10.57;100.00
64521;BME280;50896;46.714;17.322;2024-02-28T00:14:19;100318.97;;;10.55;100.00
64521;BME280;50896;46.714;17.322;2024-02-28T00:16:46;100317.16;;;10.56;100.00
64521;BME280;50896;46.714;17.322;2024-02-28T00:19:14;100315.81;;;10.52;100.00
64521;BME280;50896;46.714;17.322;2024-02-28T00:21:41;100319.47;;;10.59;100.00
64521;BME280;50896;46.714;17.322;2024-02-28T00:24:09;100323.94;;;10.50;100.00
64521;BME280;50896;46.714;17.322;2024-02-28T00:26:40;100327.59;;;10.49;100.00
64521;BME280;50896;46.714;17.322;2024-02-28T00:29:08;100331.09;;;10.41;100.00
64521;BME280;50896;46.714;17.322;2024-02-28T00:31:35;100323.63;;;10.37;100.00
64521;BME280;50896;46.714;17.322;2024-02-28T00:34:02;100323.75;;;10.35;100.00
64521;BME280;50896;46.714;17.322;2024-02-28T00:36:29;100334.38;;;10.35;100.00
64521;BME280;50896;46.714;17.322;2024-02-28T00:39:14;100324.91;;;10.33;100.00
64521;BME280;50896;46.714;17.322;2024-02-28T00:41:41;100324.22;;;10.31;100.00
64521;BME280;50896;46.714;17.322;2024-02-28T00:44:07;100325.88;;;10.32;100.00
64521;BME280;50896;46.714;17.322;2024-02-28T00:46:35;100319.75;;;10.31;100.00
64521;BME280;50896;46.714;17.322;2024-02-28T00:49:02;100320.56;;;10.32;100.00
64521;BME280;50896;46.714;17.322;2024-02-28T00:51:29;100323.03;;;10.25;100.00
64521;BME280;50896;46.714;17.322;2024-02-28T00:53:55;100325.88;;;10.32;100.00
64521;BME280;50896;46.714;17.322;2024-02-28T00:56:23;100326.53;;;10.25;100.00
64521;BME280;50896;46.714;17.322;2024-02-28T00:58:51;100335.69;;;10.31;100.00
64521;BME280;50896;46.714;17.322;2024-02-28T01:01:17;100340.31;;;10.29;100.00
64521;BME280;50896;46.714;17.322;2024-02-28T01:03:44;100336.50;;;10.23;100.00
64521;BME280;50896;46.714;17.322;2024-02-28T01:06:11;100335.84;;;10.21;100.00
64521;BME280;50896;46.714;17.322;2024-02-28T01:08:38;100334.00;;;10.22;100.00
64521;BME280;50896;46.714;17.322;2024-02-28T01:11:05;100340.31;;;10.21;100.00
64521;BME280;50896;46.714;17.322;2024-02-28T01:13:31;100347.13;;;10.23;100.00
64521;BME280;50896;46.714;17.322;2024-02-28T01:15:58;100351.78;;;10.21;100.00
64521;BME280;50896;46.714;17.322;2024-02-28T01:18:26;100350.44;;;10.25;100.00
64521;BME280;50896;46.714;17.322;2024-02-28T01:20:57;100360.72;;;10.20;100.00
64521;BME280;50896;46.714;17.322;2024-02-28T01:23:24;100363.03;;;10.15;100.00
64521;BME280;50896;46.714;17.322;2024-02-28T01:25:51;100355.72;;;10.09;100.00
64521;BME280;50896;46.714;17.322;2024-02-28T01:28:17;100368.63;;;10.04;100.00
64521;BME280;50896;46.714;17.322;2024-02-28T01:30:44;100362.34;;;10.05;100.00
64521;BME280;50896;46.714;17.322;2024-02-28T01:33:11;100364.66;;;10.08;100.00
64521;BME280;50896;46.714;17.322;2024-02-28T01:35:40;100360.16;;;10.00;100.00
64521;BME280;50896;46.714;17.322;2024-02-28T01:38:07;100362.81;;;10.00;100.00
64521;BME280;50896;46.714;17.322;2024-02-28T01:40:34;100358.13;;;9.94;100.00
64521;BME280;50896;46.714;17.322;2024-02-28T01:43:08;100370.59;;;9.94;100.00
64521;BME280;50896;46.714;17.322;2024-02-28T01:45:34;100365.59;;;9.90;100.00
64521;BME280;50896;46.714;17.322;2024-02-28T01:48:02;100359.94;;;9.85;100.00
64521;BME280;50896;46.714;17.322;2024-02-28T01:50:32;100355.13;;;9.89;100.00
64521;BME280;50896;46.714;17.322;2024-02-28T01:52:59;100360.97;;;9.92;100.00
64521;BME280;50896;46.714;17.322;2024-02-28T01:55:27;100363.25;;;9.87;100.00
64521;BME280;50896;46.714;17.322;2024-02-28T01:57:54;100362.06;;;9.82;100.00
64521;BME280;50896;46.714;17.322;2024-02-28T02:00:21;100357.28;;;9.85;100.00
64521;BME280;50896;46.714;17.322;2024-02-28T02:02:49;100363.56;;;9.84;100.00
64521;BME280;50896;46.714;17.322;2024-02-28T02:05:16;100362.94;;;9.90;100.00
64521;BME280;50896;46.714;17.322;2024-02-28T02:07:48;100353.59;;;9.86;100.00
64521;BME280;50896;46.714;17.322;2024-02-28T02:10:15;100362.22;;;9.80;100.00
64521;BME280;50896;46.714;17.322;2024-02-28T02:12:42;100365.38;;;9.75;100.00
64521;BME280;50896;46.714;17.322;2024-02-28T02:15:09;100367.50;;;9.72;100.00
64521;BME280;50896;46.714;17.322;2024-02-28T02:17:36;100365.53;;;9.82;100.00
64521;BME280;50896;46.714;17.322;2024-02-28T02:20:04;100368.84;;;9.76;100.00
64521;BME280;50896;46.714;17.322;2024-02-28T02:22:38;100372.28;;;9.68;100.00
64521;BME280;50896;46.714;17.322;2024-02-28T02:25:06;100380.06;;;9.62;100.00
64521;BME280;50896;46.714;17.322;2024-02-28T02:27:33;100384.31;;;9.54;100.00
64521;BME280;50896;46.714;17.322;2024-02-28T02:29:59;100385.31;;;9.53;100.00
64521;BME280;50896;46.714;17.322;2024-02-28T02:32:26;100378.28;;;9.44;100.00
64521;BME280;50896;46.714;17.322;2024-02-28T02:34:53;100386.88;;;9.38;100.00
64521;BME280;50896;46.714;17.322;2024-02-28T02:37:20;100379.00;;;9.28;100.00
64521;BME280;50896;46.714;17.322;2024-02-28T02:39:47;100385.44;;;9.26;100.00
64521;BME280;50896;46.714;17.322;2024-02-28T02:42:14;100375.75;;;9.16;100.00
64521;BME280;50896;46.714;17.322;2024-02-28T02:44:42;100383.72;;;9.16;100.00
64521;BME280;50896;46.714;17.322;2024-02-28T02:47:09;100379.38;;;9.15;100.00
64521;BME280;50896;46.714;17.322;2024-02-28T02:49:36;100378.88;;;9.12;100.00
64521;BME280;50896;46.714;17.322;2024-02-28T02:52:03;100381.75;;;9.00;100.00
64521;BME280;50896;46.714;17.322;2024-02-28T02:54:30;100388.03;;;8.99;100.00
64521;BME280;50896;46.714;17.322;2024-02-28T02:56:56;100390.84;;;8.98;100.00
64521;BME280;50896;46.714;17.322;2024-02-28T02:59:23;100389.56;;;9.02;100.00
64521;BME280;50896;46.714;17.322;2024-02-28T03:01:50;100394.31;;;8.98;100.00
64521;BME280;50896;46.714;17.322;2024-02-28T03:04:17;100395.69;;;8.84;100.00
64521;BME280;50896;46.714;17.322;2024-02-28T03:06:44;100395.91;;;8.73;100.00
64521;BME280;50896;46.714;17.322;2024-02-28T03:09:12;100402.13;;;8.64;100.00
64521;BME280;50896;46.714;17.322;2024-02-28T03:11:38;100401.75;;;8.59;100.00
64521;BME280;50896;46.714;17.322;2024-02-28T03:14:05;100405.06;;;8.61;100.00
64521;BME280;50896;46.714;17.322;2024-02-28T03:16:32;100402.22;;;8.54;100.00
64521;BME280;50896;46.714;17.322;2024-02-28T03:18:59;100407.53;;;8.44;100.00
64521;BME280;50896;46.714;17.322;2024-02-28T03:21:26;100416.06;;;8.38;100.00
64521;BME280;50896;46.714;17.322;2024-02-28T03:23:53;100403.31;;;8.24;100.00
64521;BME280;50896;46.714;17.322;2024-02-28T03:26:19;100407.09;;;8.21;100.00
64521;BME280;50896;46.714;17.322;2024-02-28T03:28:46;100410.84;;;8.18;100.00
64521;BME280;50896;46.714;17.322;2024-02-28T03:31:13;100405.84;;;8.15;100.00
64521;BME280;50896;46.714;17.322;2024-02-28T03:33:40;100420.81;;;8.07;100.00
64521;BME280;50896;46.714;17.322;2024-02-28T03:36:07;100422.34;;;7.99;100.00
64521;BME280;50896;46.714;17.322;2024-02-28T03:38:34;100410.84;;;7.91;100.00
64521;BME280;50896;46.714;17.322;2024-02-28T03:41:02;100407.38;;;7.90;100.00
64521;BME280;50896;46.714;17.322;2024-02-28T03:43:29;100415.31;;;7.90;100.00
64521;BME280;50896;46.714;17.322;2024-02-28T03:45:56;100423.66;;;7.85;100.00
64521;BME280;50896;46.714;17.322;2024-02-28T03:48:22;100419.25;;;7.76;100.00
64521;BME280;50896;46.714;17.322;2024-02-28T03:50:49;100417.16;;;7.70;100.00
64521;BME280;50896;46.714;17.322;2024-02-28T03:53:17;100421.06;;;7.66;100.00
64521;BME280;50896;46.714;17.322;2024-02-28T03:55:44;100430.69;;;7.57;100.00
64521;BME280;50896;46.714;17.322;2024-02-28T03:58:11;100426.53;;;7.55;100.00
64521;BME280;50896;46.714;17.322;2024-02-28T04:00:37;100422.91;;;7.56;100.00
64521;BME280;50896;46.714;17.322;2024-02-28T04:03:05;100423.06;;;7.54;100.00
64521;BME280;50896;46.714;17.322;2024-02-28T04:05:32;100427.94;;;7.49;100.00
64521;BME280;50896;46.714;17.322;2024-02-28T04:07:59;100435.47;;;7.44;100.00
64521;BME280;50896;46.714;17.322;2024-02-28T04:10:25;100422.78;;;7.38;100.00
64521;BME280;50896;46.714;17.322;2024-02-28T04:12:52;100428.22;;;7.36;100.00
64521;BME280;50896;46.714;17.322;2024-02-28T04:15:19;100426.16;;;7.40;100.00
64521;BME280;50896;46.714;17.322;2024-02-28T04:17:46;100428.22;;;7.36;100.00
64521;BME280;50896;46.714;17.322;2024-02-28T04:20:13;100434.19;;;7.38;100.00
64521;BME280;50896;46.714;17.322;2024-02-28T04:22:40;100434.09;;;7.40;100.00
64521;BME280;50896;46.714;17.322;2024-02-28T04:25:08;100431.56;;;7.38;100.00
64521;BME280;50896;46.714;17.322;2024-02-28T04:27:36;100440.34;;;7.39;100.00
64521;BME280;50896;46.714;17.322;2024-02-28T04:30:04;100437.41;;;7.32;100.00
64521;BME280;50896;46.714;17.322;2024-02-28T04:32:32;100431.72;;;7.27;100.00
64521;BME280;50896;46.714;17.322;2024-02-28T04:34:58;100433.53;;;7.26;100.00
64521;BME280;50896;46.714;17.322;2024-02-28T04:37:25;100435.50;;;7.24;100.00
64521;BME280;50896;46.714;17.322;2024-02-28T04:39:54;100443.00;;;7.29;100.00
64521;BME280;50896;46.714;17.322;2024-02-28T04:42:21;100439.09;;;7.33;100.00
64521;BME280;50896;46.714;17.322;2024-02-28T04:44:48;100441.16;;;7.39;100.00
64521;BME280;50896;46.714;17.322;2024-02-28T04:47:14;100436.72;;;7.49;100.00
64521;BME280;50896;46.714;17.322;2024-02-28T04:49:45;100449.19;;;7.67;100.00
64521;BME280;50896;46.714;17.322;2024-02-28T04:52:12;100439.03;;;7.72;100.00
64521;BME280;50896;46.714;17.322;2024-02-28T04:54:40;100448.47;;;7.84;100.00
64521;BME280;50896;46.714;17.322;2024-02-28T04:57:07;100448.97;;;7.98;100.00
64521;BME280;50896;46.714;17.322;2024-02-28T04:59:34;100458.16;;;8.03;100.00
64521;BME280;50896;46.714;17.322;2024-02-28T05:02:01;100448.13;;;8.07;100.00
64521;BME280;50896;46.714;17.322;2024-02-28T05:04:28;100448.69;;;8.11;100.00
64521;BME280;50896;46.714;17.322;2024-02-28T05:06:55;100453.69;;;8.14;100.00
64521;BME280;50896;46.714;17.322;2024-02-28T05:09:22;100452.25;;;8.19;100.00
64521;BME280;50896;46.714;17.322;2024-02-28T05:11:49;100453.22;;;8.18;100.00
64521;BME280;50896;46.714;17.322;2024-02-28T05:14:16;100460.63;;;8.15;100.00
64521;BME280;50896;46.714;17.322;2024-02-28T05:16:43;100451.22;;;8.02;100.00
64521;BME280;50896;46.714;17.322;2024-02-28T05:19:10;100455.66;;;8.02;100.00
64521;BME280;50896;46.714;17.322;2024-02-28T05:21:41;100458.31;;;8.02;100.00
64521;BME280;50896;46.714;17.322;2024-02-28T05:24:08;100456.22;;;8.06;100.00
64521;BME280;50896;46.714;17.322;2024-02-28T05:26:36;100457.34;;;8.03;100.00
64521;BME280;50896;46.714;17.322;2024-02-28T05:29:04;100449.53;;;8.01;100.00
64521;BME280;50896;46.714;17.322;2024-02-28T05:31:31;100453.00;;;8.02;100.00
64521;BME280;50896;46.714;17.322;2024-02-28T05:33:59;100458.16;;;8.03;100.00
64521;BME280;50896;46.714;17.322;2024-02-28T05:36:27;100464.41;;;8.12;100.00
64521;BME280;50896;46.714;17.322;2024-02-28T05:38:57;100470.97;;;8.08;100.00
64521;BME280;50896;46.714;17.322;2024-02-28T05:41:24;100466.25;;;8.02;100.00
64521;BME280;50896;46.714;17.322;2024-02-28T05:43:51;100473.81;;;7.97;100.00
64521;BME280;50896;46.714;17.322;2024-02-28T05:46:19;100478.09;;;7.98;100.00
64521;BME280;50896;46.714;17.322;2024-02-28T05:48:46;100478.25;;;7.96;100.00
64521;BME280;50896;46.714;17.322;2024-02-28T05:51:13;100487.56;;;8.00;100.00
64521;BME280;50896;46.714;17.322;2024-02-28T05:53:40;100493.44;;;8.04;100.00
64521;BME280;50896;46.714;17.322;2024-02-28T05:56:08;100494.25;;;8.04;100.00
64521;BME280;50896;46.714;17.322;2024-02-28T05:58:44;100501.38;;;8.04;100.00
64521;BME280;50896;46.714;17.322;2024-02-28T06:01:12;100500.38;;;8.05;100.00
64521;BME280;50896;46.714;17.322;2024-02-28T06:03:40;100504.69;;;8.06;100.00
64521;BME280;50896;46.714;17.322;2024-02-28T06:06:06;100501.94;;;7.98;100.00
64521;BME280;50896;46.714;17.322;2024-02-28T06:08:34;100512.13;;;7.93;100.00
64521;BME280;50896;46.714;17.322;2024-02-28T06:11:01;100519.81;;;7.86;100.00
64521;BME280;50896;46.714;17.322;2024-02-28T06:13:28;100521.22;;;7.80;100.00
64521;BME280;50896;46.714;17.322;2024-02-28T06:15:56;100513.66;;;7.76;100.00
64521;BME280;50896;46.714;17.322;2024-02-28T06:18:23;100524.97;;;7.78;100.00
64521;BME280;50896;46.714;17.322;2024-02-28T06:20:54;100524.53;;;7.82;100.00
64521;BME280;50896;46.714;17.322;2024-02-28T06:23:22;100526.50;;;7.80;100.00
64521;BME280;50896;46.714;17.322;2024-02-28T06:25:56;100528.72;;;7.75;100.00
64521;BME280;50896;46.714;17.322;2024-02-28T06:28:23;100538.63;;;7.73;100.00
64521;BME280;50896;46.714;17.322;2024-02-28T06:30:51;100543.50;;;7.78;100.00
64521;BME280;50896;46.714;17.322;2024-02-28T06:33:18;100535.13;;;7.73;100.00
64521;BME280;50896;46.714;17.322;2024-02-28T06:35:46;100536.94;;;7.72;100.00
64521;BME280;50896;46.714;17.322;2024-02-28T06:38:13;100546.56;;;7.73;100.00
64521;BME280;50896;46.714;17.322;2024-02-28T06:40:40;100540.56;;;7.71;100.00
64521;BME280;50896;46.714;17.322;2024-02-28T06:43:08;100549.75;;;7.86;100.00
64521;BME280;50896;46.714;17.322;2024-02-28T06:45:34;100553.25;;;7.87;100.00
64521;BME280;50896;46.714;17.322;2024-02-28T06:48:04;100548.91;;;7.86;100.00
64521;BME280;50896;46.714;17.322;2024-02-28T06:50:31;100549.59;;;7.88;100.00
64521;BME280;50896;46.714;17.322;2024-02-28T06:52:58;100559.06;;;7.91;100.00
64521;BME280;50896;46.714;17.322;2024-02-28T06:55:25;100565.09;;;7.93;100.00
64521;BME280;50896;46.714;17.322;2024-02-28T06:57:52;100558.94;;;7.92;100.00
64521;BME280;50896;46.714;17.322;2024-02-28T07:00:18;100567.00;;;8.00;100.00
64521;BME280;50896;46.714;17.322;2024-02-28T07:02:46;100562.66;;;8.09;100.00
64521;BME280;50896;46.714;17.322;2024-02-28T07:05:13;100557.09;;;8.12;100.00
64521;BME280;50896;46.714;17.322;2024-02-28T07:07:40;100553.72;;;8.20;100.00
64521;BME280;50896;46.714;17.322;2024-02-28T07:10:07;100568.63;;;8.31;100.00
64521;BME280;50896;46.714;17.322;2024-02-28T07:12:34;100562.59;;;8.38;100.00
64521;BME280;50896;46.714;17.322;2024-02-28T07:15:01;100541.13;;;8.42;100.00
64521;BME280;50896;46.714;17.322;2024-02-28T07:17:28;100567.59;;;8.61;100.00
64521;BME280;50896;46.714;17.322;2024-02-28T07:19:55;100566.69;;;8.70;100.00
64521;BME280;50896;46.714;17.322;2024-02-28T07:22:22;100570.56;;;8.76;100.00
64521;BME280;50896;46.714;17.322;2024-02-28T07:24:49;100576.97;;;8.83;100.00
64521;BME280;50896;46.714;17.322;2024-02-28T07:27:15;100577.44;;;8.97;100.00
64521;BME280;50896;46.714;17.322;2024-02-28T07:29:43;100574.22;;;9.03;100.00
64521;BME280;50896;46.714;17.322;2024-02-28T07:32:10;100590.59;;;9.16;100.00
64521;BME280;50896;46.714;17.322;2024-02-28T07:34:39;100596.44;;;9.20;100.00
64521;BME280;50896;46.714;17.322;2024-02-28T07:37:06;100591.25;;;9.28;100.00
64521;BME280;50896;46.714;17.322;2024-02-28T07:39:33;100595.03;;;9.26;100.00
64521;BME280;50896;46.714;17.322;2024-02-28T07:42:00;100597.91;;;9.32;100.00
64521;BME280;50896;46.714;17.322;2024-02-28T07:44:27;100603.16;;;9.42;100.00
64521;BME280;50896;46.714;17.322;2024-02-28T07:46:58;100592.25;;;9.45;100.00
64521;BME280;50896;46.714;17.322;2024-02-28T07:49:26;100590.56;;;9.44;100.00
64521;BME280;50896;46.714;17.322;2024-02-28T07:51:54;100595.81;;;9.54;100.00
64521;BME280;50896;46.714;17.322;2024-02-28T07:54:21;100603.59;;;9.55;100.00
64521;BME280;50896;46.714;17.322;2024-02-28T07:56:48;100602.94;;;9.53;100.00
64521;BME280;50896;46.714;17.322;2024-02-28T07:59:15;100603.09;;;9.52;100.00
64521;BME280;50896;46.714;17.322;2024-02-28T08:01:42;100615.28;;;9.63;100.00
64521;BME280;50896;46.714;17.322;2024-02-28T08:04:10;100606.03;;;9.67;100.00
64521;BME280;50896;46.714;17.322;2024-02-28T08:06:37;100608.47;;;9.78;100.00
64521;BME280;50896;46.714;17.322;2024-02-28T08:09:04;100622.75;;;9.95;100.00
64521;BME280;50896;46.714;17.322;2024-02-28T08:11:31;100618.47;;;10.02;100.00
64521;BME280;50896;46.714;17.322;2024-02-28T08:13:57;100617.19;;;10.06;100.00
64521;BME280;50896;46.714;17.322;2024-02-28T08:16:24;100616.31;;;10.06;100.00
64521;BME280;50896;46.714;17.322;2024-02-28T08:18:54;100610.72;;;10.09;100.00
64521;BME280;50896;46.714;17.322;2024-02-28T08:21:21;100614.75;;;10.13;100.00
64521;BME280;50896;46.714;17.322;2024-02-28T08:23:49;100606.31;;;10.18;100.00
64521;BME280;50896;46.714;17.322;2024-02-28T08:26:15;100601.66;;;10.20;100.00
64521;BME280;50896;46.714;17.322;2024-02-28T08:28:43;100609.41;;;10.31;100.00
64521;BME280;50896;46.714;17.322;2024-02-28T08:31:09;100607.66;;;10.40;100.00
64521;BME280;50896;46.714;17.322;2024-02-28T08:33:36;100605.66;;;10.42;100.00
64521;BME280;50896;46.714;17.322;2024-02-28T08:36:04;100604.84;;;10.41;100.00
64521;BME280;50896;46.714;17.322;2024-02-28T08:38:31;100606.34;;;10.44;100.00
64521;BME280;50896;46.714;17.322;2024-02-28T08:40:57;100608.69;;;10.47;100.00
64521;BME280;50896;46.714;17.322;2024-02-28T08:43:24;100611.41;;;10.55;100.00
64521;BME280;50896;46.714;17.322;2024-02-28T08:45:51;100608.59;;;10.57;100.00
64521;BME280;50896;46.714;17.322;2024-02-28T08:48:18;100606.09;;;10.55;100.00
64521;BME280;50896;46.714;17.322;2024-02-28T08:50:45;100611.25;;;10.57;100.00
64521;BME280;50896;46.714;17.322;2024-02-28T08:53:12;100607.94;;;10.63;100.00
64521;BME280;50896;46.714;17.322;2024-02-28T08:55:39;100608.78;;;10.64;100.00
64521;BME280;50896;46.714;17.322;2024-02-28T08:58:05;100615.91;;;10.63;100.00
64521;BME280;50896;46.714;17.322;2024-02-28T09:00:32;100623.78;;;10.73;100.00
64521;BME280;50896;46.714;17.322;2024-02-28T09:02:59;100621.13;;;10.73;100.00
64521;BME280;50896;46.714;17.322;2024-02-28T09:05:26;100627.66;;;10.87;100.00
64521;BME280;50896;46.714;17.322;2024-02-28T09:07:53;100617.75;;;10.97;100.00
64521;BME280;50896;46.714;17.322;2024-02-28T09:10:21;100619.78;;;11.03;100.00
64521;BME280;50896;46.714;17.322;2024-02-28T09:12:51;100615.16;;;11.14;100.00
64521;BME280;50896;46.714;17.322;2024-02-28T09:15:19;100620.34;;;11.23;100.00
64521;BME280;50896;46.714;17.322;2024-02-28T09:17:46;100624.22;;;11.37;100.00
64521;BME280;50896;46.714;17.322;2024-02-28T09:20:12;100619.25;;;11.51;100.00
64521;BME280;50896;46.714;17.322;2024-02-28T09:22:39;100620.28;;;11.66;100.00
64521;BME280;50896;46.714;17.322;2024-02-28T09:25:07;100618.75;;;11.63;100.00
64521;BME280;50896;46.714;17.322;2024-02-28T09:27:36;100630.44;;;11.62;100.00
64521;BME280;50896;46.714;17.322;2024-02-28T09:30:04;100623.78;;;11.58;100.00
64521;BME280;50896;46.714;17.322;2024-02-28T09:32:31;100639.09;;;11.73;100.00
64521;BME280;50896;46.714;17.322;2024-02-28T09:34:58;100625.78;;;11.81;100.00
64521;BME280;50896;46.714;17.322;2024-02-28T09:37:25;100635.66;;;11.97;100.00
64521;BME280;50896;46.714;17.322;2024-02-28T09:39:52;100638.31;;;12.05;100.00
64521;BME280;50896;46.714;17.322;2024-02-28T09:42:20;100633.66;;;12.16;100.00
64521;BME280;50896;46.714;17.322;2024-02-28T09:44:48;100632.16;;;12.21;100.00
64521;BME280;50896;46.714;17.322;2024-02-28T09:47:15;100634.31;;;12.34;100.00
64521;BME280;50896;46.714;17.322;2024-02-28T09:49:42;100644.78;;;12.44;100.00
64521;BME280;50896;46.714;17.322;2024-02-28T09:52:12;100650.13;;;12.44;100.00
64521;BME280;50896;46.714;17.322;2024-02-28T09:54:38;100651.78;;;12.53;100.00
64521;BME280;50896;46.714;17.322;2024-02-28T09:57:11;100649.94;;;12.62;100.00
64521;BME280;50896;46.714;17.322;2024-02-28T09:59:39;100659.09;;;12.68;100.00
64521;BME280;50896;46.714;17.322;2024-02-28T10:02:21;100658.09;;;12.69;100.00
64521;BME280;50896;46.714;17.322;2024-02-28T10:04:50;100657.22;;;12.76;100.00
64521;BME280;50896;46.714;17.322;2024-02-28T10:07:17;100648.88;;;12.79;100.00
64521;BME280;50896;46.714;17.322;2024-02-28T10:09:44;100655.41;;;12.77;100.00
64521;BME280;50896;46.714;17.322;2024-02-28T10:12:11;100658.72;;;12.79;100.00
64521;BME280;50896;46.714;17.322;2024-02-28T10:14:38;100662.19;;;12.88;100.00
64521;BME280;50896;46.714;17.322;2024-02-28T10:17:06;100663.66;;;12.98;100.00
64521;BME280;50896;46.714;17.322;2024-02-28T10:19:34;100669.81;;;13.07;100.00
64521;BME280;50896;46.714;17.322;2024-02-28T10:22:01;100664.25;;;13.17;100.00
64521;BME280;50896;46.714;17.322;2024-02-28T10:24:28;100660.94;;;13.15;100.00
64521;BME280;50896;46.714;17.322;2024-02-28T10:26:55;100660.94;;;13.15;100.00
64521;BME280;50896;46.714;17.322;2024-02-28T10:29:23;100651.81;;;13.09;100.00
64521;BME280;50896;46.714;17.322;2024-02-28T10:31:51;100657.78;;;13.11;100.00
64521;BME280;50896;46.714;17.322;2024-02-28T10:34:18;100653.63;;;13.09;100.00
64521;BME280;50896;46.714;17.322;2024-02-28T10:36:46;100653.63;;;13.09;100.00
64521;BME280;50896;46.714;17.322;2024-02-28T10:39:14;100653.28;;;13.12;100.00
64521;BME280;50896;46.714;17.322;2024-02-28T10:41:42;100656.09;;;13.19;100.00
64521;BME280;50896;46.714;17.322;2024-02-28T10:44:09;100652.22;;;13.21;100.00
64521;BME280;50896;46.714;17.322;2024-02-28T10:46:39;100656.88;;;13.36;100.00
64521;BME280;50896;46.714;17.322;2024-02-28T10:49:08;100658.66;;;13.43;100.00
64521;BME280;50896;46.714;17.322;2024-02-28T10:51:36;100657.00;;;13.42;100.00
64521;BME280;50896;46.714;17.322;2024-02-28T10:54:12;100654.34;;;13.42;100.00
64521;BME280;50896;46.714;17.322;2024-02-28T10:56:42;100653.88;;;13.39;100.00
64521;BME280;50896;46.714;17.322;2024-02-28T10:59:11;100650.00;;;13.41;100.00
64521;BME280;50896;46.714;17.322;2024-02-28T11:01:41;100656.31;;;13.48;100.00
64521;BME280;50896;46.714;17.322;2024-02-28T11:04:13;100650.16;;;13.48;100.00
64521;BME280;50896;46.714;17.322;2024-02-28T11:06:50;100660.75;;;13.56;100.00
64521;BME280;50896;46.714;17.322;2024-02-28T11:09:23;100669.09;;;13.61;100.00
64521;BME280;50896;46.714;17.322;2024-02-28T11:11:53;100667.19;;;13.70;100.00
64521;BME280;50896;46.714;17.322;2024-02-28T11:14:21;100663.16;;;13.74;100.00
64521;BME280;50896;46.714;17.322;2024-02-28T11:17:04;100656.19;;;13.73;100.00
64521;BME280;50896;46.714;17.322;2024-02-28T11:19:33;100662.22;;;13.67;100.00
64521;BME280;50896;46.714;17.322;2024-02-28T11:22:04;100667.13;;;13.55;100.00
64521;BME280;50896;46.714;17.322;2024-02-28T11:24:33;100663.31;;;13.49;100.00
64521;BME280;50896;46.714;17.322;2024-02-28T11:27:01;100665.47;;;13.54;100.00
64521;BME280;50896;46.714;17.322;2024-02-28T11:29:33;100670.41;;;13.65;100.00
64521;BME280;50896;46.714;17.322;2024-02-28T11:31:59;100664.69;;;13.68;100.00
64521;BME280;50896;46.714;17.322;2024-02-28T11:34:26;100667.22;;;13.93;100.00
64521;BME280;50896;46.714;17.322;2024-02-28T11:36:53;100659.91;;;14.10;100.00
64521;BME280;50896;46.714;17.322;2024-02-28T11:39:22;100659.03;;;14.18;100.00
64521;BME280;50896;46.714;17.322;2024-02-28T11:41:52;100656.47;;;14.25;100.00
64521;BME280;50896;46.714;17.322;2024-02-28T11:44:19;100657.31;;;14.40;100.00
64521;BME280;50896;46.714;17.322;2024-02-28T11:46:47;100657.69;;;14.52;100.00
64521;BME280;50896;46.714;17.322;2024-02-28T11:49:15;100647.59;;;14.62;100.00
64521;BME280;50896;46.714;17.322;2024-02-28T11:51:45;100647.50;;;14.70;100.00
64521;BME280;50896;46.714;17.322;2024-02-28T11:54:13;100640.25;;;14.79;100.00
64521;BME280;50896;46.714;17.322;2024-02-28T11:56:40;100642.06;;;14.79;100.00
64521;BME280;50896;46.714;17.322;2024-02-28T11:59:08;100636.72;;;14.79;100.00
64521;BME280;50896;46.714;17.322;2024-02-28T12:01:40;100640.69;;;14.83;100.00
64521;BME280;50896;46.714;17.322;2024-02-28T12:04:07;100633.56;;;14.90;100.00
64521;BME280;50896;46.714;17.322;2024-02-28T12:06:34;100635.41;;;14.90;100.00
64521;BME280;50896;46.714;17.322;2024-02-28T12:09:09;100626.63;;;14.96;100.00
64521;BME280;50896;46.714;17.322;2024-02-28T12:11:42;100623.63;;;14.99;100.00
64521;BME280;50896;46.714;17.322;2024-02-28T12:14:09;100629.41;;;15.02;100.00
64521;BME280;50896;46.714;17.322;2024-02-28T12:16:37;100625.09;;;15.01;100.00
64521;BME280;50896;46.714;17.322;2024-02-28T12:19:08;100617.69;;;15.03;100.00
64521;BME280;50896;46.714;17.322;2024-02-28T12:21:36;100617.31;;;15.07;100.00
64521;BME280;50896;46.714;17.322;2024-02-28T12:24:12;100609.34;;;15.28;100.00
64521;BME280;50896;46.714;17.322;2024-02-28T12:26:40;100612.75;;;15.22;100.00
64521;BME280;50896;46.714;17.322;2024-02-28T12:29:07;100604.81;;;15.14;100.00
64521;BME280;50896;46.714;17.322;2024-02-28T12:31:36;100599.84;;;15.11;100.00
64521;BME280;50896;46.714;17.322;2024-02-28T12:34:03;100600.69;;;15.11;100.00
64521;BME280;50896;46.714;17.322;2024-02-28T12:36:32;100598.56;;;15.07;100.00
64521;BME280;50896;46.714;17.322;2024-02-28T12:39:00;100589.81;;;14.98;100.00